sensor_id;sensor_type;location;lat;lon;timestamp;P1;durP1;ratioP1;P2;durP2;ratioP2
67889;SDS011;54685;52.082;5.426;2023-04-29T00:01:23;39.13;;;22.08;;
67889;SDS011;54685;52.082;5.426;2023-04-29T00:03:50;43.60;;;23.77;;
67889;SDS011;54685;52.082;5.426;2023-04-29T00:06:17;43.85;;;23.50;;
67889;SDS011;54685;52.082;5.426;2023-04-29T00:08:44;49.03;;;25.98;;
67889;SDS011;54685;52.082;5.426;2023-04-29T00:11:11;49.97;;;25.02;;
67889;SDS011;54685;52.082;5.426;2023-04-29T00:13:38;50.13;;;25.48;;
67889;SDS011;54685;52.082;5.426;2023-04-29T00:16:06;43.13;;;23.80;;
67889;SDS011;54685;52.082;5.426;2023-04-29T00:18:37;53.45;;;24.90;;
67889;SDS011;54685;52.082;5.426;2023-04-29T00:21:04;44.55;;;23.50;;
67889;SDS011;54685;52.082;5.426;2023-04-29T00:23:32;46.80;;;25.63;;
67889;SDS011;54685;52.082;5.426;2023-04-29T00:25:59;45.20;;;24.92;;
67889;SDS011;54685;52.082;5.426;2023-04-29T00:28:26;50.15;;;25.75;;
67889;SDS011;54685;52.082;5.426;2023-04-29T00:30:53;51.55;;;25.88;;
67889;SDS011;54685;52.082;5.426;2023-04-29T00:33:21;50.42;;;25.70;;
67889;SDS011;54685;52.082;5.426;2023-04-29T00:35:49;51.55;;;25.80;;
67889;SDS011;54685;52.082;5.426;2023-04-29T00:38:16;58.92;;;28.13;;
67889;SDS011;54685;52.082;5.426;2023-04-29T00:40:43;53.78;;;25.95;;
67889;SDS011;54685;52.082;5.426;2023-04-29T00:43:10;50.28;;;25.73;;
67889;SDS011;54685;52.082;5.426;2023-04-29T00:45:37;52.00;;;27.42;;
67889;SDS011;54685;52.082;5.426;2023-04-29T00:48:04;54.50;;;28.83;;
67889;SDS011;54685;52.082;5.426;2023-04-29T00:50:33;48.30;;;25.65;;
67889;SDS011;54685;52.082;5.426;2023-04-29T00:53:02;42.28;;;25.85;;
67889;SDS011;54685;52.082;5.426;2023-04-29T00:55:29;47.78;;;26.10;;
67889;SDS011;54685;52.082;5.426;2023-04-29T00:57:58;53.28;;;27.45;;
67889;SDS011;54685;52.082;5.426;2023-04-29T01:00:25;53.60;;;25.70;;
67889;SDS011;54685;52.082;5.426;2023-04-29T01:02:53;58.58;;;28.38;;
67889;SDS011;54685;52.082;5.426;2023-04-29T01:05:22;48.58;;;25.35;;
67889;SDS011;54685;52.082;5.426;2023-04-29T01:10:31;48.42;;;26.35;;
67889;SDS011;54685;52.082;5.426;2023-04-29T01:15:48;47.38;;;24.38;;
67889;SDS011;54685;52.082;5.426;2023-04-29T01:18:32;50.20;;;26.05;;
67889;SDS011;54685;52.082;5.426;2023-04-29T01:21:06;52.13;;;26.95;;
67889;SDS011;54685;52.082;5.426;2023-04-29T01:23:33;47.55;;;25.90;;
67889;SDS011;54685;52.082;5.426;2023-04-29T01:26:00;47.65;;;25.35;;
67889;SDS011;54685;52.082;5.426;2023-04-29T01:31:31;42.28;;;25.00;;
67889;SDS011;54685;52.082;5.426;2023-04-29T01:34:25;42.28;;;25.48;;
67889;SDS011;54685;52.082;5.426;2023-04-29T01:37:17;36.90;;;23.30;;
67889;SDS011;54685;52.082;5.426;2023-04-29T01:40:15;46.83;;;25.98;;
67889;SDS011;54685;52.082;5.426;2023-04-29T01:43:01;42.03;;;24.98;;
67889;SDS011;54685;52.082;5.426;2023-04-29T01:45:33;47.20;;;25.38;;
67889;SDS011;54685;52.082;5.426;2023-04-29T01:48:01;43.25;;;24.50;;
67889;SDS011;54685;52.082;5.426;2023-04-29T01:50:30;39.92;;;23.90;;
67889;SDS011;54685;52.082;5.426;2023-04-29T01:53:06;44.17;;;23.63;;
67889;SDS011;54685;52.082;5.426;2023-04-29T01:55:33;37.00;;;22.42;;
67889;SDS011;54685;52.082;5.426;2023-04-29T01:58:29;34.72;;;22.73;;
67889;SDS011;54685;52.082;5.426;2023-04-29T02:01:02;38.15;;;23.25;;
67889;SDS011;54685;52.082;5.426;2023-04-29T02:03:31;37.13;;;22.98;;
67889;SDS011;54685;52.082;5.426;2023-04-29T02:06:00;39.25;;;23.52;;
67889;SDS011;54685;52.082;5.426;2023-04-29T02:08:33;41.88;;;23.02;;
67889;SDS011;54685;52.082;5.426;2023-04-29T02:11:00;32.67;;;22.60;;
67889;SDS011;54685;52.082;5.426;2023-04-29T02:13:32;46.47;;;23.33;;
67889;SDS011;54685;52.082;5.426;2023-04-29T02:16:06;40.70;;;23.88;;
67889;SDS011;54685;52.082;5.426;2023-04-29T02:18:36;35.17;;;22.00;;
67889;SDS011;54685;52.082;5.426;2023-04-29T02:21:04;32.58;;;21.83;;
67889;SDS011;54685;52.082;5.426;2023-04-29T02:23:33;37.58;;;21.75;;
67889;SDS011;54685;52.082;5.426;2023-04-29T02:26:00;32.35;;;23.20;;
67889;SDS011;54685;52.082;5.426;2023-04-29T02:28:31;44.00;;;21.83;;
67889;SDS011;54685;52.082;5.426;2023-04-29T02:30:58;33.00;;;21.00;;
67889;SDS011;54685;52.082;5.426;2023-04-29T02:33:25;37.92;;;22.58;;
67889;SDS011;54685;52.082;5.426;2023-04-29T02:35:52;41.15;;;21.73;;
67889;SDS011;54685;52.082;5.426;2023-04-29T02:38:21;28.48;;;21.45;;
67889;SDS011;54685;52.082;5.426;2023-04-29T02:40:47;40.17;;;22.30;;
67889;SDS011;54685;52.082;5.426;2023-04-29T02:43:15;31.73;;;19.95;;
67889;SDS011;54685;52.082;5.426;2023-04-29T02:45:43;34.33;;;20.10;;
67889;SDS011;54685;52.082;5.426;2023-04-29T02:48:11;35.38;;;18.98;;
67889;SDS011;54685;52.082;5.426;2023-04-29T02:50:38;33.55;;;20.60;;
67889;SDS011;54685;52.082;5.426;2023-04-29T02:53:05;38.45;;;20.80;;
67889;SDS011;54685;52.082;5.426;2023-04-29T02:55:32;35.30;;;19.33;;
67889;SDS011;54685;52.082;5.426;2023-04-29T02:58:06;28.00;;;18.60;;
67889;SDS011;54685;52.082;5.426;2023-04-29T03:00:33;30.90;;;18.67;;
67889;SDS011;54685;52.082;5.426;2023-04-29T03:03:00;34.67;;;19.33;;
67889;SDS011;54685;52.082;5.426;2023-04-29T03:05:27;27.77;;;18.23;;
67889;SDS011;54685;52.082;5.426;2023-04-29T03:07:54;30.88;;;17.92;;
67889;SDS011;54685;52.082;5.426;2023-04-29T03:10:21;24.75;;;16.27;;
67889;SDS011;54685;52.082;5.426;2023-04-29T03:12:48;26.92;;;17.52;;
67889;SDS011;54685;52.082;5.426;2023-04-29T03:15:15;24.67;;;16.48;;
67889;SDS011;54685;52.082;5.426;2023-04-29T03:17:43;30.70;;;18.05;;
67889;SDS011;54685;52.082;5.426;2023-04-29T03:20:12;28.83;;;17.05;;
67889;SDS011;54685;52.082;5.426;2023-04-29T03:22:39;28.42;;;17.00;;
67889;SDS011;54685;52.082;5.426;2023-04-29T03:25:06;28.45;;;16.75;;
67889;SDS011;54685;52.082;5.426;2023-04-29T03:27:37;27.70;;;16.10;;
67889;SDS011;54685;52.082;5.426;2023-04-29T03:30:05;28.08;;;16.55;;
67889;SDS011;54685;52.082;5.426;2023-04-29T03:32:40;29.08;;;17.52;;
67889;SDS011;54685;52.082;5.426;2023-04-29T03:35:07;25.70;;;14.65;;
67889;SDS011;54685;52.082;5.426;2023-04-29T03:37:38;26.60;;;17.48;;
67889;SDS011;54685;52.082;5.426;2023-04-29T03:40:28;26.40;;;15.98;;
67889;SDS011;54685;52.082;5.426;2023-04-29T03:42:56;28.13;;;16.50;;
67889;SDS011;54685;52.082;5.426;2023-04-29T03:45:23;24.20;;;16.00;;
67889;SDS011;54685;52.082;5.426;2023-04-29T03:47:50;27.33;;;16.20;;
67889;SDS011;54685;52.082;5.426;2023-04-29T03:50:21;27.23;;;15.57;;
67889;SDS011;54685;52.082;5.426;2023-04-29T03:52:49;21.77;;;15.68;;
67889;SDS011;54685;52.082;5.426;2023-04-29T03:55:18;24.58;;;16.40;;
67889;SDS011;54685;52.082;5.426;2023-04-29T03:57:46;25.02;;;16.23;;
67889;SDS011;54685;52.082;5.426;2023-04-29T04:00:15;32.30;;;17.63;;
67889;SDS011;54685;52.082;5.426;2023-04-29T04:02:44;21.55;;;15.77;;
67889;SDS011;54685;52.082;5.426;2023-04-29T04:05:13;24.48;;;16.10;;
67889;SDS011;54685;52.082;5.426;2023-04-29T04:07:45;24.05;;;17.48;;
67889;SDS011;54685;52.082;5.426;2023-04-29T04:10:38;21.80;;;15.55;;
67889;SDS011;54685;52.082;5.426;2023-04-29T04:13:29;27.17;;;15.40;;
67889;SDS011;54685;52.082;5.426;2023-04-29T04:15:56;25.08;;;16.73;;
67889;SDS011;54685;52.082;5.426;2023-04-29T04:18:23;21.95;;;15.40;;
67889;SDS011;54685;52.082;5.426;2023-04-29T04:20:50;24.08;;;15.55;;
67889;SDS011;54685;52.082;5.426;2023-04-29T04:23:20;21.33;;;15.98;;
67889;SDS011;54685;52.082;5.426;2023-04-29T04:25:47;18.48;;;14.52;;
67889;SDS011;54685;52.082;5.426;2023-04-29T04:28:37;23.67;;;16.35;;
67889;SDS011;54685;52.082;5.426;2023-04-29T04:31:09;18.17;;;14.88;;
67889;SDS011;54685;52.082;5.426;2023-04-29T04:33:36;18.80;;;15.55;;
67889;SDS011;54685;52.082;5.426;2023-04-29T04:36:06;21.60;;;15.70;;
67889;SDS011;54685;52.082;5.426;2023-04-29T04:38:36;17.85;;;14.15;;
67889;SDS011;54685;52.082;5.426;2023-04-29T04:41:07;18.95;;;14.45;;
67889;SDS011;54685;52.082;5.426;2023-04-29T04:43:37;16.85;;;13.57;;
67889;SDS011;54685;52.082;5.426;2023-04-29T04:46:13;20.60;;;14.00;;
67889;SDS011;54685;52.082;5.426;2023-04-29T04:48:55;23.33;;;13.98;;
67889;SDS011;54685;52.082;5.426;2023-04-29T04:51:26;17.83;;;13.25;;
67889;SDS011;54685;52.082;5.426;2023-04-29T04:53:54;19.15;;;13.68;;
67889;SDS011;54685;52.082;5.426;2023-04-29T04:56:22;19.95;;;13.63;;
67889;SDS011;54685;52.082;5.426;2023-04-29T04:58:50;19.42;;;13.38;;
67889;SDS011;54685;52.082;5.426;2023-04-29T05:01:17;23.63;;;13.63;;
67889;SDS011;54685;52.082;5.426;2023-04-29T05:03:43;19.80;;;13.32;;
67889;SDS011;54685;52.082;5.426;2023-04-29T05:06:11;17.98;;;12.52;;
67889;SDS011;54685;52.082;5.426;2023-04-29T05:08:40;18.30;;;13.88;;
67889;SDS011;54685;52.082;5.426;2023-04-29T05:11:17;18.58;;;12.73;;
67889;SDS011;54685;52.082;5.426;2023-04-29T05:13:58;23.02;;;13.18;;
67889;SDS011;54685;52.082;5.426;2023-04-29T05:16:26;23.45;;;13.82;;
67889;SDS011;54685;52.082;5.426;2023-04-29T05:18:54;21.00;;;13.13;;
67889;SDS011;54685;52.082;5.426;2023-04-29T05:21:24;24.17;;;13.10;;
67889;SDS011;54685;52.082;5.426;2023-04-29T05:23:51;20.73;;;13.27;;
67889;SDS011;54685;52.082;5.426;2023-04-29T05:26:18;20.50;;;13.35;;
67889;SDS011;54685;52.082;5.426;2023-04-29T05:28:46;20.08;;;12.80;;
67889;SDS011;54685;52.082;5.426;2023-04-29T05:31:20;20.65;;;13.80;;
67889;SDS011;54685;52.082;5.426;2023-04-29T05:33:48;17.50;;;13.30;;
67889;SDS011;54685;52.082;5.426;2023-04-29T05:36:15;16.95;;;12.45;;
67889;SDS011;54685;52.082;5.426;2023-04-29T05:38:42;19.17;;;12.77;;
67889;SDS011;54685;52.082;5.426;2023-04-29T05:41:10;25.88;;;13.32;;
67889;SDS011;54685;52.082;5.426;2023-04-29T05:43:39;19.95;;;12.50;;
67889;SDS011;54685;52.082;5.426;2023-04-29T05:46:06;24.63;;;13.93;;
67889;SDS011;54685;52.082;5.426;2023-04-29T05:48:33;21.67;;;13.18;;
67889;SDS011;54685;52.082;5.426;2023-04-29T05:51:00;17.08;;;11.88;;
67889;SDS011;54685;52.082;5.426;2023-04-29T05:53:28;18.60;;;12.85;;
67889;SDS011;54685;52.082;5.426;2023-04-29T05:55:55;18.50;;;13.52;;
67889;SDS011;54685;52.082;5.426;2023-04-29T05:58:22;21.70;;;13.65;;
67889;SDS011;54685;52.082;5.426;2023-04-29T06:00:49;18.23;;;12.98;;
67889;SDS011;54685;52.082;5.426;2023-04-29T06:03:20;20.08;;;13.38;;
67889;SDS011;54685;52.082;5.426;2023-04-29T06:05:54;24.10;;;13.88;;
67889;SDS011;54685;52.082;5.426;2023-04-29T06:08:56;21.00;;;13.65;;
67889;SDS011;54685;52.082;5.426;2023-04-29T06:11:26;26.77;;;15.48;;
67889;SDS011;54685;52.082;5.426;2023-04-29T06:13:54;18.13;;;13.15;;
67889;SDS011;54685;52.082;5.426;2023-04-29T06:16:21;23.40;;;14.82;;
67889;SDS011;54685;52.082;5.426;2023-04-29T06:18:48;18.90;;;13.95;;
67889;SDS011;54685;52.082;5.426;2023-04-29T06:21:16;23.58;;;14.77;;
67889;SDS011;54685;52.082;5.426;2023-04-29T06:23:43;21.00;;;13.77;;
67889;SDS011;54685;52.082;5.426;2023-04-29T06:26:15;25.15;;;15.60;;
67889;SDS011;54685;52.082;5.426;2023-04-29T06:28:41;19.83;;;13.60;;
67889;SDS011;54685;52.082;5.426;2023-04-29T06:31:09;23.50;;;14.43;;
67889;SDS011;54685;52.082;5.426;2023-04-29T06:33:36;25.65;;;14.40;;
67889;SDS011;54685;52.082;5.426;2023-04-29T06:36:04;22.15;;;13.93;;
67889;SDS011;54685;52.082;5.426;2023-04-29T06:38:54;20.85;;;13.25;;
67889;SDS011;54685;52.082;5.426;2023-04-29T06:41:32;21.88;;;13.65;;
67889;SDS011;54685;52.082;5.426;2023-04-29T06:44:32;20.20;;;13.93;;
67889;SDS011;54685;52.082;5.426;2023-04-29T06:50:18;18.90;;;13.25;;
67889;SDS011;54685;52.082;5.426;2023-04-29T06:52:45;24.83;;;13.63;;
67889;SDS011;54685;52.082;5.426;2023-04-29T06:55:12;18.35;;;13.45;;
67889;SDS011;54685;52.082;5.426;2023-04-29T06:57:40;25.63;;;13.55;;
67889;SDS011;54685;52.082;5.426;2023-04-29T07:00:07;25.58;;;15.13;;
67889;SDS011;54685;52.082;5.426;2023-04-29T07:02:35;24.20;;;14.07;;
67889;SDS011;54685;52.082;5.426;2023-04-29T07:05:04;19.63;;;13.23;;
67889;SDS011;54685;52.082;5.426;2023-04-29T07:07:32;27.63;;;14.10;;
67889;SDS011;54685;52.082;5.426;2023-04-29T07:09:59;22.58;;;12.75;;
67889;SDS011;54685;52.082;5.426;2023-04-29T07:12:28;20.45;;;12.70;;
67889;SDS011;54685;52.082;5.426;2023-04-29T07:14:55;20.77;;;12.38;;
67889;SDS011;54685;52.082;5.426;2023-04-29T07:17:23;21.65;;;13.00;;
67889;SDS011;54685;52.082;5.426;2023-04-29T07:19:51;27.83;;;13.55;;
67889;SDS011;54685;52.082;5.426;2023-04-29T07:22:20;20.60;;;12.15;;
67889;SDS011;54685;52.082;5.426;2023-04-29T07:24:47;23.02;;;11.85;;
67889;SDS011;54685;52.082;5.426;2023-04-29T07:27:15;25.52;;;12.98;;
67889;SDS011;54685;52.082;5.426;2023-04-29T07:29:41;23.30;;;12.90;;
67889;SDS011;54685;52.082;5.426;2023-04-29T07:32:08;25.98;;;12.38;;
67889;SDS011;54685;52.082;5.426;2023-04-29T07:34:36;21.15;;;11.65;;
67889;SDS011;54685;52.082;5.426;2023-04-29T07:37:03;19.73;;;11.80;;
67889;SDS011;54685;52.082;5.426;2023-04-29T07:39:30;22.15;;;11.57;;
67889;SDS011;54685;52.082;5.426;2023-04-29T07:41:57;21.15;;;11.20;;
67889;SDS011;54685;52.082;5.426;2023-04-29T07:44:25;17.38;;;11.18;;
67889;SDS011;54685;52.082;5.426;2023-04-29T07:46:52;15.90;;;10.15;;
67889;SDS011;54685;52.082;5.426;2023-04-29T07:49:19;19.10;;;11.02;;
67889;SDS011;54685;52.082;5.426;2023-04-29T07:51:46;18.77;;;10.50;;
67889;SDS011;54685;52.082;5.426;2023-04-29T07:54:14;18.73;;;9.82;;
67889;SDS011;54685;52.082;5.426;2023-04-29T07:56:43;21.40;;;11.07;;
67889;SDS011;54685;52.082;5.426;2023-04-29T07:59:10;14.98;;;10.25;;
67889;SDS011;54685;52.082;5.426;2023-04-29T08:01:37;13.20;;;9.63;;
67889;SDS011;54685;52.082;5.426;2023-04-29T08:04:06;18.80;;;9.95;;
67889;SDS011;54685;52.082;5.426;2023-04-29T08:06:44;15.23;;;9.45;;
67889;SDS011;54685;52.082;5.426;2023-04-29T08:09:11;20.13;;;8.90;;
67889;SDS011;54685;52.082;5.426;2023-04-29T08:11:40;14.82;;;9.30;;
67889;SDS011;54685;52.082;5.426;2023-04-29T08:14:10;13.52;;;8.65;;
67889;SDS011;54685;52.082;5.426;2023-04-29T08:16:37;12.70;;;8.52;;
67889;SDS011;54685;52.082;5.426;2023-04-29T08:19:04;13.88;;;8.77;;
67889;SDS011;54685;52.082;5.426;2023-04-29T08:21:31;12.55;;;8.15;;
67889;SDS011;54685;52.082;5.426;2023-04-29T08:24:00;10.70;;;8.40;;
67889;SDS011;54685;52.082;5.426;2023-04-29T08:26:27;14.23;;;7.95;;
67889;SDS011;54685;52.082;5.426;2023-04-29T08:28:56;10.30;;;7.60;;
67889;SDS011;54685;52.082;5.426;2023-04-29T08:31:23;12.82;;;7.38;;
67889;SDS011;54685;52.082;5.426;2023-04-29T08:33:53;12.95;;;7.13;;
67889;SDS011;54685;52.082;5.426;2023-04-29T08:36:21;9.77;;;6.82;;
67889;SDS011;54685;52.082;5.426;2023-04-29T08:38:48;9.27;;;6.22;;
67889;SDS011;54685;52.082;5.426;2023-04-29T08:41:21;10.18;;;6.10;;
67889;SDS011;54685;52.082;5.426;2023-04-29T08:43:48;11.20;;;7.05;;
67889;SDS011;54685;52.082;5.426;2023-04-29T08:46:18;11.40;;;6.53;;
67889;SDS011;54685;52.082;5.426;2023-04-29T08:48:46;11.95;;;6.45;;
67889;SDS011;54685;52.082;5.426;2023-04-29T08:51:15;11.45;;;6.82;;
67889;SDS011;54685;52.082;5.426;2023-04-29T08:53:42;10.93;;;6.60;;
67889;SDS011;54685;52.082;5.426;2023-04-29T08:56:13;11.30;;;7.40;;
67889;SDS011;54685;52.082;5.426;2023-04-29T08:58:53;10.32;;;7.13;;
67889;SDS011;54685;52.082;5.426;2023-04-29T09:01:26;10.48;;;6.78;;
67889;SDS011;54685;52.082;5.426;2023-04-29T09:04:14;13.57;;;7.30;;
67889;SDS011;54685;52.082;5.426;2023-04-29T09:06:51;8.48;;;6.22;;
67889;SDS011;54685;52.082;5.426;2023-04-29T09:09:21;12.38;;;6.05;;
67889;SDS011;54685;52.082;5.426;2023-04-29T09:11:50;9.23;;;5.88;;
67889;SDS011;54685;52.082;5.426;2023-04-29T09:14:17;11.77;;;6.03;;
67889;SDS011;54685;52.082;5.426;2023-04-29T09:16:45;8.48;;;5.60;;
67889;SDS011;54685;52.082;5.426;2023-04-29T09:19:32;10.60;;;6.15;;
67889;SDS011;54685;52.082;5.426;2023-04-29T09:22:00;9.50;;;5.88;;
67889;SDS011;54685;52.082;5.426;2023-04-29T09:24:28;14.18;;;6.10;;
67889;SDS011;54685;52.082;5.426;2023-04-29T09:26:59;8.70;;;6.03;;
67889;SDS011;54685;52.082;5.426;2023-04-29T09:29:31;8.98;;;5.72;;
67889;SDS011;54685;52.082;5.426;2023-04-29T09:31:59;10.00;;;6.15;;
67889;SDS011;54685;52.082;5.426;2023-04-29T09:34:43;13.20;;;6.50;;
67889;SDS011;54685;52.082;5.426;2023-04-29T09:37:22;11.90;;;6.53;;
67889;SDS011;54685;52.082;5.426;2023-04-29T09:39:51;10.65;;;6.75;;
67889;SDS011;54685;52.082;5.426;2023-04-29T09:42:19;11.20;;;5.93;;
67889;SDS011;54685;52.082;5.426;2023-04-29T09:44:46;8.73;;;5.82;;
67889;SDS011;54685;52.082;5.426;2023-04-29T09:47:14;15.25;;;6.30;;
67889;SDS011;54685;52.082;5.426;2023-04-29T09:49:43;9.52;;;5.88;;
67889;SDS011;54685;52.082;5.426;2023-04-29T09:52:15;10.73;;;6.10;;
67889;SDS011;54685;52.082;5.426;2023-04-29T09:54:43;8.82;;;5.63;;
67889;SDS011;54685;52.082;5.426;2023-04-29T10:00:47;8.95;;;5.45;;
67889;SDS011;54685;52.082;5.426;2023-04-29T10:20:01;6.95;;;4.78;;
67889;SDS011;54685;52.082;5.426;2023-04-29T10:22:42;9.30;;;4.70;;
67889;SDS011;54685;52.082;5.426;2023-04-29T10:25:14;8.40;;;4.80;;
67889;SDS011;54685;52.082;5.426;2023-04-29T10:27:49;6.32;;;4.20;;
67889;SDS011;54685;52.082;5.426;2023-04-29T10:30:55;6.53;;;3.97;;
67889;SDS011;54685;52.082;5.426;2023-04-29T10:33:24;5.65;;;4.88;;
67889;SDS011;54685;52.082;5.426;2023-04-29T10:35:53;8.68;;;5.20;;
67889;SDS011;54685;52.082;5.426;2023-04-29T10:41:14;10.48;;;4.80;;
67889;SDS011;54685;52.082;5.426;2023-04-29T10:43:50;7.07;;;4.32;;
67889;SDS011;54685;52.082;5.426;2023-04-29T10:46:21;5.95;;;4.57;;
67889;SDS011;54685;52.082;5.426;2023-04-29T10:48:50;8.13;;;4.22;;
67889;SDS011;54685;52.082;5.426;2023-04-29T10:51:38;9.48;;;4.82;;
67889;SDS011;54685;52.082;5.426;2023-04-29T10:54:14;8.85;;;4.40;;
67889;SDS011;54685;52.082;5.426;2023-04-29T10:56:48;6.93;;;4.00;;
67889;SDS011;54685;52.082;5.426;2023-04-29T10:59:20;6.07;;;3.88;;
67889;SDS011;54685;52.082;5.426;2023-04-29T11:04:20;7.95;;;4.68;;
67889;SDS011;54685;52.082;5.426;2023-04-29T11:06:52;7.25;;;4.43;;
67889;SDS011;54685;52.082;5.426;2023-04-29T11:09:25;6.85;;;4.40;;
67889;SDS011;54685;52.082;5.426;2023-04-29T11:12:02;7.28;;;4.50;;
67889;SDS011;54685;52.082;5.426;2023-04-29T11:14:40;5.25;;;3.95;;
67889;SDS011;54685;52.082;5.426;2023-04-29T11:17:13;6.85;;;4.40;;
67889;SDS011;54685;52.082;5.426;2023-04-29T11:27:24;7.43;;;4.13;;
67889;SDS011;54685;52.082;5.426;2023-04-29T11:29:54;7.80;;;4.22;;
67889;SDS011;54685;52.082;5.426;2023-04-29T11:32:28;10.13;;;3.65;;
67889;SDS011;54685;52.082;5.426;2023-04-29T11:35:09;6.88;;;3.85;;
67889;SDS011;54685;52.082;5.426;2023-04-29T11:37:38;5.28;;;3.63;;
67889;SDS011;54685;52.082;5.426;2023-04-29T11:40:08;8.00;;;3.63;;
67889;SDS011;54685;52.082;5.426;2023-04-29T11:42:40;6.10;;;3.47;;
67889;SDS011;54685;52.082;5.426;2023-04-29T11:45:12;6.40;;;3.70;;
67889;SDS011;54685;52.082;5.426;2023-04-29T11:47:46;6.15;;;3.55;;
67889;SDS011;54685;52.082;5.426;2023-04-29T11:50:15;8.23;;;3.38;;
67889;SDS011;54685;52.082;5.426;2023-04-29T11:52:46;3.78;;;3.30;;
67889;SDS011;54685;52.082;5.426;2023-04-29T11:55:14;9.35;;;3.60;;
67889;SDS011;54685;52.082;5.426;2023-04-29T11:57:41;5.30;;;3.33;;
67889;SDS011;54685;52.082;5.426;2023-04-29T12:00:11;6.60;;;3.50;;
67889;SDS011;54685;52.082;5.426;2023-04-29T12:02:42;7.50;;;4.40;;
67889;SDS011;54685;52.082;5.426;2023-04-29T12:05:13;7.05;;;4.53;;
67889;SDS011;54685;52.082;5.426;2023-04-29T12:10:25;7.15;;;4.50;;
67889;SDS011;54685;52.082;5.426;2023-04-29T12:12:52;8.13;;;4.03;;
67889;SDS011;54685;52.082;5.426;2023-04-29T12:15:19;7.03;;;3.95;;
67889;SDS011;54685;52.082;5.426;2023-04-29T12:17:46;4.38;;;3.60;;
67889;SDS011;54685;52.082;5.426;2023-04-29T12:20:13;8.20;;;5.03;;
67889;SDS011;54685;52.082;5.426;2023-04-29T12:22:41;6.20;;;4.25;;
67889;SDS011;54685;52.082;5.426;2023-04-29T12:25:09;7.28;;;4.50;;
67889;SDS011;54685;52.082;5.426;2023-04-29T12:27:38;10.05;;;4.03;;
67889;SDS011;54685;52.082;5.426;2023-04-29T12:30:07;8.07;;;4.03;;
67889;SDS011;54685;52.082;5.426;2023-04-29T12:32:35;6.68;;;4.28;;
67889;SDS011;54685;52.082;5.426;2023-04-29T12:35:02;9.45;;;4.50;;
67889;SDS011;54685;52.082;5.426;2023-04-29T12:37:29;7.43;;;4.50;;
67889;SDS011;54685;52.082;5.426;2023-04-29T12:39:56;9.10;;;3.95;;
67889;SDS011;54685;52.082;5.426;2023-04-29T12:42:22;6.82;;;3.90;;
67889;SDS011;54685;52.082;5.426;2023-04-29T12:44:49;7.35;;;3.60;;
67889;SDS011;54685;52.082;5.426;2023-04-29T12:47:16;6.85;;;3.72;;
67889;SDS011;54685;52.082;5.426;2023-04-29T12:49:43;7.25;;;3.60;;
67889;SDS011;54685;52.082;5.426;2023-04-29T12:52:11;6.30;;;3.88;;
67889;SDS011;54685;52.082;5.426;2023-04-29T12:54:38;10.18;;;6.22;;
67889;SDS011;54685;52.082;5.426;2023-04-29T12:57:09;32.15;;;25.08;;
67889;SDS011;54685;52.082;5.426;2023-04-29T12:59:37;13.88;;;7.93;;
67889;SDS011;54685;52.082;5.426;2023-04-29T13:02:04;8.40;;;4.63;;
67889;SDS011;54685;52.082;5.426;2023-04-29T13:04:31;10.75;;;4.60;;
67889;SDS011;54685;52.082;5.426;2023-04-29T13:06:58;14.85;;;9.27;;
67889;SDS011;54685;52.082;5.426;2023-04-29T13:09:25;11.73;;;6.90;;
67889;SDS011;54685;52.082;5.426;2023-04-29T13:11:52;11.15;;;4.88;;
67889;SDS011;54685;52.082;5.426;2023-04-29T13:14:19;11.63;;;7.35;;
67889;SDS011;54685;52.082;5.426;2023-04-29T13:16:52;7.85;;;5.20;;
67889;SDS011;54685;52.082;5.426;2023-04-29T13:19:19;6.60;;;4.72;;
67889;SDS011;54685;52.082;5.426;2023-04-29T13:22:06;12.80;;;4.75;;
67889;SDS011;54685;52.082;5.426;2023-04-29T13:24:33;8.90;;;4.50;;
67889;SDS011;54685;52.082;5.426;2023-04-29T13:27:01;11.32;;;5.03;;
67889;SDS011;54685;52.082;5.426;2023-04-29T13:29:31;6.78;;;4.25;;
67889;SDS011;54685;52.082;5.426;2023-04-29T13:31:57;10.20;;;4.78;;
67889;SDS011;54685;52.082;5.426;2023-04-29T13:34:24;7.68;;;3.75;;
67889;SDS011;54685;52.082;5.426;2023-04-29T13:36:51;6.82;;;4.25;;
67889;SDS011;54685;52.082;5.426;2023-04-29T13:39:18;7.38;;;4.60;;
67889;SDS011;54685;52.082;5.426;2023-04-29T13:41:48;8.10;;;4.13;;
67889;SDS011;54685;52.082;5.426;2023-04-29T13:44:15;7.43;;;4.35;;
67889;SDS011;54685;52.082;5.426;2023-04-29T13:46:58;8.38;;;4.50;;
67889;SDS011;54685;52.082;5.426;2023-04-29T13:49:27;6.22;;;4.00;;
67889;SDS011;54685;52.082;5.426;2023-04-29T13:52:13;7.78;;;4.25;;
67889;SDS011;54685;52.082;5.426;2023-04-29T13:55:00;8.30;;;4.13;;
67889;SDS011;54685;52.082;5.426;2023-04-29T13:57:47;6.97;;;4.35;;
67889;SDS011;54685;52.082;5.426;2023-04-29T14:00:34;10.02;;;4.90;;
67889;SDS011;54685;52.082;5.426;2023-04-29T14:03:03;8.98;;;4.68;;
67889;SDS011;54685;52.082;5.426;2023-04-29T14:05:32;6.53;;;4.43;;
67889;SDS011;54685;52.082;5.426;2023-04-29T14:07:59;9.27;;;4.45;;
67889;SDS011;54685;52.082;5.426;2023-04-29T14:10:26;6.70;;;4.22;;
67889;SDS011;54685;52.082;5.426;2023-04-29T14:12:53;8.70;;;4.28;;
67889;SDS011;54685;52.082;5.426;2023-04-29T14:15:20;9.65;;;4.75;;
67889;SDS011;54685;52.082;5.426;2023-04-29T14:17:46;10.68;;;4.45;;
67889;SDS011;54685;52.082;5.426;2023-04-29T14:20:15;8.18;;;4.45;;
67889;SDS011;54685;52.082;5.426;2023-04-29T14:22:42;5.18;;;4.50;;
67889;SDS011;54685;52.082;5.426;2023-04-29T14:25:09;12.07;;;4.65;;
67889;SDS011;54685;52.082;5.426;2023-04-29T14:27:37;10.45;;;5.57;;
67889;SDS011;54685;52.082;5.426;2023-04-29T14:30:04;6.38;;;5.32;;
67889;SDS011;54685;52.082;5.426;2023-04-29T14:32:32;7.75;;;4.60;;
67889;SDS011;54685;52.082;5.426;2023-04-29T14:34:59;5.85;;;4.60;;
67889;SDS011;54685;52.082;5.426;2023-04-29T14:37:26;9.57;;;4.70;;
67889;SDS011;54685;52.082;5.426;2023-04-29T14:39:52;8.02;;;4.50;;
67889;SDS011;54685;52.082;5.426;2023-04-29T14:42:19;7.95;;;4.57;;
67889;SDS011;54685;52.082;5.426;2023-04-29T14:44:46;9.05;;;3.90;;
67889;SDS011;54685;52.082;5.426;2023-04-29T14:47:12;7.65;;;4.47;;
67889;SDS011;54685;52.082;5.426;2023-04-29T14:49:39;11.50;;;4.43;;
67889;SDS011;54685;52.082;5.426;2023-04-29T14:52:06;11.40;;;6.55;;
67889;SDS011;54685;52.082;5.426;2023-04-29T14:54:32;7.18;;;4.70;;
67889;SDS011;54685;52.082;5.426;2023-04-29T14:56:59;6.93;;;4.32;;
67889;SDS011;54685;52.082;5.426;2023-04-29T14:59:27;13.43;;;5.90;;
67889;SDS011;54685;52.082;5.426;2023-04-29T15:01:55;9.68;;;4.53;;
67889;SDS011;54685;52.082;5.426;2023-04-29T15:04:22;8.27;;;4.10;;
67889;SDS011;54685;52.082;5.426;2023-04-29T15:06:49;7.60;;;4.22;;
67889;SDS011;54685;52.082;5.426;2023-04-29T15:09:16;7.55;;;4.00;;
67889;SDS011;54685;52.082;5.426;2023-04-29T15:11:43;7.57;;;4.55;;
67889;SDS011;54685;52.082;5.426;2023-04-29T15:14:10;6.47;;;4.10;;
67889;SDS011;54685;52.082;5.426;2023-04-29T15:16:37;5.63;;;3.78;;
67889;SDS011;54685;52.082;5.426;2023-04-29T15:19:04;9.75;;;4.30;;
67889;SDS011;54685;52.082;5.426;2023-04-29T15:21:30;7.70;;;3.97;;
67889;SDS011;54685;52.082;5.426;2023-04-29T15:23:57;4.90;;;3.60;;
67889;SDS011;54685;52.082;5.426;2023-04-29T15:26:24;9.43;;;4.80;;
67889;SDS011;54685;52.082;5.426;2023-04-29T15:28:51;4.90;;;3.35;;
67889;SDS011;54685;52.082;5.426;2023-04-29T15:31:18;3.80;;;2.80;;
67889;SDS011;54685;52.082;5.426;2023-04-29T15:33:48;6.93;;;3.30;;
67889;SDS011;54685;52.082;5.426;2023-04-29T15:36:18;5.47;;;3.17;;